Time;durP1;ratioP1;P1;durP2;ratioP2;P2;SDS_P1;SDS_P2;PMS_P1;PMS_P2;Temp;Humidity;BMP_temperature;BMP_pressure;BME280_temperature;BME280_humidity;BME280_pressure;Samples;Min_cycle;Max_cycle;Signal;HPM_P1;HPM_P2
2022/07/06 00:00:46;;;;;;;4.75;0.52;;;;;;;;;;4181150;28;20044;-90
2022/07/06 00:02:54;;;;;;;9.88;0.70;;;;;;;;;;4203791;28;20036;-88
2022/07/06 00:04:57;;;;;;;4.43;0.70;;;;;;;;;;4172918;28;20115;-89
2022/07/06 00:06:58;;;;;;;2.00;0.50;;;;;;;;;;4182808;28;20150;-90
2022/07/06 00:09:00;;;;;;;1.88;0.70;;;;;;;;;;4180740;28;20048;-90
2022/07/06 00:11:02;;;;;;;3.67;0.50;;;;;;;;;;4190164;28;20094;-89
2022/07/06 00:13:04;;;;;;;3.55;0.88;;;;;;;;;;4197059;28;20049;-90
2022/07/06 00:15:08;;;;;;;2.55;0.60;;;;;;;;;;4180547;28;20124;-89
2022/07/06 00:17:10;;;;;;;2.25;0.60;;;;;;;;;;4198012;28;20080;-90
2022/07/06 00:19:11;;;;;;;3.22;0.70;;;;;;;;;;4180320;28;20056;-90
2022/07/06 00:21:13;;;;;;;3.30;0.70;;;;;;;;;;4176311;28;20532;-89
2022/07/06 00:23:17;;;;;;;5.80;0.90;;;;;;;;;;4199298;28;20048;-89
2022/07/06 00:25:18;;;;;;;3.22;1.48;;;;;;;;;;4182899;28;20045;-90
2022/07/06 00:27:19;;;;;;;2.65;0.88;;;;;;;;;;4182949;28;20128;-89
2022/07/06 00:29:20;;;;;;;3.22;0.80;;;;;;;;;;4200401;28;20052;-89
2022/07/06 00:31:22;;;;;;;4.63;0.90;;;;;;;;;;4199131;28;20084;-90
2022/07/06 00:33:25;;;;;;;2.15;0.63;;;;;;;;;;4199745;28;20126;-90
2022/07/06 00:35:26;;;;;;;2.90;0.68;;;15.20;99.90;;;;;;4199389;28;20084;-89
2022/07/06 00:37:27;;;;;;;5.28;0.60;;;14.80;99.90;;;;;;4177154;28;20060;-89
2022/07/06 00:39:29;;;;;;;3.42;0.80;;;14.80;99.90;;;;;;4208424;28;20044;-90
2022/07/06 00:41:29;;;;;;;3.90;0.90;;;14.80;99.90;;;;;;4198999;28;20040;-90
2022/07/06 00:43:52;;;;;;;1.35;0.80;;;14.80;99.90;;;;;;4183246;28;20394;-91
2022/07/06 00:45:54;;;;;;;1.63;0.85;;;14.80;99.90;;;;;;4183620;28;20045;-91
2022/07/06 00:47:55;;;;;;;7.20;0.60;;;14.80;99.90;;;;;;4199801;28;20071;-91
2022/07/06 00:52:19;;;;;;;4.00;0.98;;;14.80;99.90;;;;;;4201251;28;20053;-91
2022/07/06 00:54:22;;;;;;;7.95;0.90;;;14.70;99.90;;;;;;4199055;28;20041;-89
2022/07/06 00:56:23;;;;;;;2.25;0.77;;;14.70;99.90;;;;;;4187330;28;20167;-90
2022/07/06 00:58:35;;;;;;;4.60;1.00;;;14.70;99.90;;;;;;4190202;28;20059;-90
2022/07/06 01:00:44;;;;;;;2.47;0.52;;;14.70;99.90;;;;;;4171656;28;20049;-89
2022/07/06 01:02:46;;;;;;;3.88;0.65;;;14.70;99.90;;;;;;4203739;28;20056;-90
2022/07/06 01:04:49;;;;;;;2.08;0.60;;;14.70;99.90;;;;;;4204385;28;20159;-90
2022/07/06 01:06:51;;;;;;;3.65;0.90;;;14.70;99.90;;;;;;4197803;28;20049;-90
2022/07/06 01:08:53;;;;;;;3.25;0.88;;;14.70;99.90;;;;;;4185815;28;20044;-90
2022/07/06 01:10:58;;;;;;;2.78;0.77;;;14.60;99.90;;;;;;4203721;28;20056;-90
2022/07/06 01:13:17;;;;;;;3.85;0.60;;;14.70;99.90;;;;;;4219718;28;20048;-90
2022/07/06 01:15:20;;;;;;;2.65;0.60;;;14.70;99.90;;;;;;4202013;28;20116;-88
2022/07/06 01:17:39;;;;;;;7.50;0.80;;;14.70;99.90;;;;;;4220467;28;20036;-90
2022/07/06 01:19:46;;;;;;;2.50;0.52;;;14.60;99.90;;;;;;4219779;28;20025;-89
2022/07/06 01:22:17;;;;;;;4.70;0.70;;;14.70;99.90;;;;;;4219495;28;20076;-90
2022/07/06 01:24:37;;;;;;;3.58;1.08;;;14.70;99.90;;;;;;4217422;28;20075;-89
2022/07/06 01:27:26;;;;;;;1.70;0.55;;;14.70;99.90;;;;;;4214295;28;20085;-90
2022/07/06 01:30:06;;;;;;;1.05;0.68;;;14.70;99.90;;;;;;4212805;28;20473;-90
2022/07/06 01:32:06;;;;;;;1.55;0.45;;;14.70;99.90;;;;;;4188401;28;20048;-91
2022/07/06 01:34:09;;;;;;;4.55;0.70;;;14.60;99.90;;;;;;4211850;28;20547;-90
2022/07/06 01:36:12;;;;;;;3.85;0.70;;;14.60;99.90;;;;;;4219237;28;20047;-90
2022/07/06 01:38:14;;;;;;;2.25;0.70;;;14.60;99.90;;;;;;4185955;28;20150;-90
2022/07/06 01:40:15;;;;;;;3.85;0.80;;;14.60;99.90;;;;;;4203083;28;20048;-90
2022/07/06 01:42:22;;;;;;;5.80;0.90;;;14.60;99.90;;;;;;4205352;28;20059;-90
2022/07/06 01:44:24;;;;;;;2.65;0.98;;;14.60;99.90;;;;;;4205644;28;20083;-90
2022/07/06 01:46:25;;;;;;;2.78;0.75;;;14.50;99.90;;;;;;4202849;28;20044;-90
2022/07/06 01:48:26;;;;;;;2.60;0.60;;;14.50;99.90;;;;;;4185981;28;20045;-90
2022/07/06 01:50:27;;;;;;;2.30;0.75;;;14.50;99.90;;;;;;4185848;28;20049;-89
2022/07/06 01:52:30;;;;;;;1.60;0.50;;;14.50;99.90;;;;;;4185633;28;20052;-88
2022/07/06 01:54:31;;;;;;;1.58;0.60;;;14.50;99.90;;;;;;4201597;28;20113;-89
2022/07/06 01:56:32;;;;;;;4.82;0.65;;;14.40;99.90;;;;;;4202156;28;20041;-88
2022/07/06 01:58:35;;;;;;;5.32;0.85;;;14.50;99.90;;;;;;4201572;28;20115;-89
2022/07/06 02:00:36;;;;;;;3.40;0.80;;;14.60;99.90;;;;;;4201913;28;20544;-89
2022/07/06 02:02:38;;;;;;;5.70;0.88;;;14.40;99.90;;;;;;4176205;28;20057;-88
2022/07/06 02:04:39;;;;;;;3.38;0.63;;;14.50;99.90;;;;;;4198426;28;20052;-89
2022/07/06 02:06:45;;;;;;;5.35;0.60;;;14.50;99.90;;;;;;4202545;28;20049;-88
2022/07/06 02:08:47;;;;;;;0.40;0.40;;;14.50;99.90;;;;;;4185331;28;20040;-88
2022/07/06 02:10:49;;;;;;;4.72;0.40;;;14.50;99.90;;;;;;4201635;28;20037;-90
2022/07/06 02:12:50;;;;;;;4.45;0.68;;;14.50;99.90;;;;;;4185596;28;20672;-89
2022/07/06 02:14:51;;;;;;;0.95;0.55;;;14.50;99.90;;;;;;4184953;28;20048;-90
2022/07/06 02:16:52;;;;;;;3.50;0.70;;;14.50;99.90;;;;;;4184972;28;20482;-89
2022/07/06 02:18:53;;;;;;;7.90;0.73;;;14.50;99.90;;;;;;4185038;28;20056;-89
2022/07/06 02:20:54;;;;;;;3.58;0.47;;;14.40;99.90;;;;;;4169752;28;20062;-90
2022/07/06 02:22:56;;;;;;;2.97;0.50;;;14.40;99.90;;;;;;4196227;28;20044;-89
2022/07/06 02:24:58;;;;;;;2.50;1.00;;;14.40;99.90;;;;;;4202477;28;20047;-90
2022/07/06 02:26:59;;;;;;;5.55;1.48;;;14.30;99.90;;;;;;4187949;28;20059;-90
2022/07/06 02:29:00;;;;;;;5.15;0.70;;;14.30;99.90;;;;;;4201846;28;20080;-89
2022/07/06 02:31:01;;;;;;;6.32;1.60;;;14.30;99.90;;;;;;4187097;28;20081;-90
2022/07/06 02:33:04;;;;;;;3.13;0.50;;;14.10;99.90;;;;;;4204715;28;20052;-90
2022/07/06 02:35:07;;;;;;;8.00;1.27;;;14.20;99.90;;;;;;4190237;28;20053;-89
2022/07/06 02:37:10;;;;;;;2.30;0.70;;;14.20;99.90;;;;;;4202384;28;20121;-90
2022/07/06 02:39:12;;;;;;;2.80;0.40;;;14.10;99.90;;;;;;4201346;28;20523;-89
2022/07/06 02:41:13;;;;;;;4.32;0.75;;;14.10;99.90;;;;;;4190949;28;20041;-89
2022/07/06 02:43:20;;;;;;;5.20;1.23;;;14.10;99.90;;;;;;4238941;28;20039;-89
2022/07/06 02:45:23;;;;;;;4.15;0.63;;;14.00;99.90;;;;;;4185557;28;20084;-91
2022/07/06 02:47:23;;;;;;;4.45;0.70;;;14.00;99.90;;;;;;4204621;28;20051;-91
2022/07/06 02:49:26;;;;;;;3.30;0.65;;;13.90;99.90;;;;;;4183749;28;20481;-90
2022/07/06 02:51:34;;;;;;;4.18;0.68;;;13.90;99.90;;;;;;4172395;28;20053;-91
2022/07/06 02:53:36;;;;;;;2.83;0.57;;;13.80;99.90;;;;;;4198216;28;20535;-90
2022/07/06 02:55:37;;;;;;;2.00;0.50;;;13.80;99.90;;;;;;4164785;28;20052;-90
2022/07/06 02:57:38;;;;;;;3.55;0.50;;;13.80;99.90;;;;;;4190013;28;20048;-90
2022/07/06 02:59:45;;;;;;;2.33;0.50;;;13.70;99.90;;;;;;4181449;28;20046;-90
2022/07/06 03:01:47;;;;;;;5.60;0.70;;;13.70;99.90;;;;;;4170338;28;20037;-90
2022/07/06 03:03:48;;;;;;;2.20;0.50;;;13.70;99.90;;;;;;4164771;28;20124;-90
2022/07/06 03:05:50;;;;;;;5.40;0.70;;;13.70;99.90;;;;;;4182826;28;20037;-90
2022/07/06 03:07:54;;;;;;;3.70;1.42;;;13.70;99.90;;;;;;4183309;28;20044;-90
2022/07/06 03:09:55;;;;;;;3.72;0.55;;;13.60;99.90;;;;;;4181463;28;20045;-90
2022/07/06 03:11:56;;;;;;;3.08;0.40;;;13.60;99.90;;;;;;4165020;28;20393;-91
2022/07/06 03:13:58;;;;;;;6.60;1.45;;;13.60;99.90;;;;;;4164996;28;20049;-91
2022/07/06 03:15:59;;;;;;;3.47;0.60;;;13.60;99.90;;;;;;4165024;28;20111;-90
2022/07/06 03:18:02;;;;;;;4.75;0.52;;;13.50;99.90;;;;;;4175587;28;20128;-90
2022/07/06 03:20:04;;;;;;;2.50;0.50;;;13.50;99.90;;;;;;4190163;28;20056;-89
2022/07/06 03:22:06;;;;;;;4.43;0.88;;;13.40;99.90;;;;;;4169603;28;20076;-90
2022/07/06 03:24:08;;;;;;;1.90;0.50;;;13.50;99.90;;;;;;4179760;28;20044;-90
2022/07/06 03:26:09;;;;;;;2.47;0.68;;;13.40;99.90;;;;;;4185815;28;20146;-90
2022/07/06 03:28:15;;;;;;;7.22;0.80;;;13.40;99.90;;;;;;4180890;28;20036;-90
2022/07/06 03:30:16;;;;;;;3.17;1.02;;;13.40;99.90;;;;;;4164522;28;20048;-90
2022/07/06 03:32:17;;;;;;;2.90;0.85;;;13.40;99.90;;;;;;4164602;28;20466;-90
2022/07/06 03:34:19;;;;;;;3.35;1.00;;;13.40;99.90;;;;;;4183750;28;20056;-90
2022/07/06 03:36:20;;;;;;;5.72;1.02;;;13.30;99.90;;;;;;4218942;28;20044;-90
2022/07/06 03:38:21;;;;;;;4.18;0.90;;;13.30;99.90;;;;;;4184924;28;20436;-91
2022/07/06 03:40:22;;;;;;;4.60;1.30;;;13.30;99.90;;;;;;4186304;28;20044;-90
2022/07/06 03:42:24;;;;;;;3.97;0.60;;;13.30;99.90;;;;;;4184574;28;20056;-90
2022/07/06 03:44:26;;;;;;;5.38;1.75;;;13.30;99.90;;;;;;4184182;28;20068;-89
2022/07/06 03:46:29;;;;;;;8.45;1.58;;;13.30;99.90;;;;;;4182699;28;20051;-90
2022/07/06 03:48:30;;;;;;;1.10;0.50;;;13.30;99.90;;;;;;4183122;28;20048;-90
2022/07/06 03:50:31;;;;;;;1.83;0.75;;;13.30;99.90;;;;;;4199395;28;20047;-90
2022/07/06 03:52:35;;;;;;;2.05;0.85;;;13.30;99.90;;;;;;4198299;28;20507;-90
2022/07/06 03:54:42;;;;;;;3.70;0.50;;;13.30;99.90;;;;;;4204091;28;20076;-90
2022/07/06 03:56:43;;;;;;;4.43;1.00;;;13.30;99.90;;;;;;4204296;28;20037;-90
2022/07/06 03:58:45;;;;;;;3.33;0.80;;;13.30;99.90;;;;;;4183464;28;20049;-89
2022/07/06 04:00:46;;;;;;;3.15;0.70;;;13.30;99.90;;;;;;4214490;28;20357;-90
2022/07/06 04:02:47;;;;;;;5.47;0.68;;;13.20;99.90;;;;;;4164844;28;20077;-90
2022/07/06 04:04:51;;;;;;;3.35;0.85;;;13.20;99.90;;;;;;4183264;28;20140;-90
2022/07/06 04:06:52;;;;;;;2.25;0.50;;;13.20;99.90;;;;;;4185766;28;20523;-91
2022/07/06 04:08:54;;;;;;;2.13;0.82;;;13.10;99.90;;;;;;4197169;28;20508;-91
2022/07/06 04:10:56;;;;;;;5.25;1.40;;;13.10;99.90;;;;;;4197393;28;20421;-90
2022/07/06 04:12:56;;;;;;;3.28;0.90;;;13.10;99.90;;;;;;4196981;28;20051;-90
2022/07/06 04:14:58;;;;;;;2.10;0.45;;;13.10;99.90;;;;;;4178220;28;20048;-91
2022/07/06 04:17:51;;;;;;;1.60;0.95;;;13.10;99.90;;;;;;4197352;28;20048;-91
2022/07/06 04:19:25;;;;;;;4.43;0.52;;;13.10;99.90;;;;;;4198590;28;20040;-90
2022/07/06 04:21:28;;;;;;;3.58;0.70;;;13.20;99.90;;;;;;4180056;28;20408;-90
2022/07/06 04:23:29;;;;;;;5.93;1.10;;;13.20;99.90;;;;;;4180715;28;20488;-90
2022/07/06 04:25:31;;;;;;;2.55;0.40;;;13.20;99.90;;;;;;4196493;28;20052;-90
2022/07/06 04:27:32;;;;;;;1.85;0.88;;;13.20;99.90;;;;;;4180859;28;20049;-90
2022/07/06 04:29:33;;;;;;;1.95;0.68;;;13.20;99.90;;;;;;4200016;28;20393;-90
2022/07/06 04:31:34;;;;;;;0.57;0.40;;;13.20;99.90;;;;;;4178976;28;20041;-89
2022/07/06 04:33:35;;;;;;;2.53;0.70;;;13.20;99.90;;;;;;4183562;28;20604;-89
2022/07/06 04:35:37;;;;;;;5.10;0.70;;;13.20;99.90;;;;;;4189640;28;20044;-89
2022/07/06 04:37:38;;;;;;;5.07;0.60;;;13.20;99.90;;;;;;4183148;28;20045;-90
2022/07/06 04:39:39;;;;;;;3.05;0.50;;;13.30;99.90;;;;;;4184684;28;20040;-90
2022/07/06 04:41:40;;;;;;;2.33;0.60;;;13.30;99.90;;;;;;4199821;28;20424;-90
2022/07/06 04:43:41;;;;;;;1.80;0.40;;;13.30;99.90;;;;;;4183880;28;20817;-90
2022/07/06 04:45:42;;;;;;;4.03;1.30;;;13.30;99.90;;;;;;4183355;28;20083;-89
2022/07/06 04:47:45;;;;;;;4.35;1.20;;;13.30;99.90;;;;;;4200020;28;20447;-89
2022/07/06 04:49:48;;;;;;;2.67;0.32;;;13.30;99.90;;;;;;4175502;28;20053;-89
2022/07/06 04:51:50;;;;;;;2.75;0.75;;;13.30;99.90;;;;;;4183203;28;20436;-89
2022/07/06 04:53:52;;;;;;;1.20;0.45;;;13.30;99.90;;;;;;4171276;28;20102;-90
2022/07/06 04:55:53;;;;;;;1.50;0.20;;;13.20;99.90;;;;;;4201383;28;20043;-90
2022/07/06 04:57:56;;;;;;;0.73;0.55;;;13.30;99.90;;;;;;4183750;28;20049;-89
2022/07/06 04:59:57;;;;;;;2.42;0.55;;;13.30;99.90;;;;;;4199696;28;20044;-90
2022/07/06 05:01:57;;;;;;;3.30;0.40;;;13.40;99.90;;;;;;4197855;28;20040;-89
2022/07/06 05:03:59;;;;;;;2.03;0.43;;;13.40;99.90;;;;;;4184026;28;20068;-89
2022/07/06 05:06:00;;;;;;;3.55;0.40;;;13.40;99.90;;;;;;4184493;28;20087;-90
2022/07/06 05:08:01;;;;;;;3.80;0.50;;;13.50;99.90;;;;;;4183541;28;20505;-89
2022/07/06 05:10:03;;;;;;;3.63;0.52;;;13.60;99.90;;;;;;4199392;28;20190;-89
2022/07/06 05:12:05;;;;;;;4.10;1.05;;;13.60;99.90;;;;;;4183376;28;20033;-90
2022/07/06 05:14:06;;;;;;;2.75;0.35;;;13.70;99.90;;;;;;4200953;28;20048;-90
2022/07/06 05:16:09;;;;;;;4.85;0.50;;;13.70;99.90;;;;;;4190173;28;20073;-91
2022/07/06 05:18:10;;;;;;;3.00;1.25;;;13.80;99.90;;;;;;4200004;28;20055;-90
2022/07/06 05:20:11;;;;;;;0.77;0.20;;;13.90;99.90;;;;;;4183622;28;20130;-90
2022/07/06 05:22:13;;;;;;;3.58;0.30;;;14.00;99.90;;;;;;4184358;28;20493;-90
2022/07/06 05:24:20;;;;;;;3.17;0.50;;;13.90;99.90;;;;;;4185453;28;20610;-89
2022/07/06 05:26:22;;;;;;;0.45;0.30;;;14.10;99.90;;;;;;4195927;28;20075;-89
2022/07/06 05:28:26;;;;;;;1.60;0.50;;;14.10;99.90;;;;;;4194399;28;20040;-90
2022/07/06 05:30:27;;;;;;;1.38;0.40;;;14.10;99.90;;;;;;4208892;28;20044;-89
2022/07/06 05:32:27;;;;;;;3.00;0.30;;;14.20;99.90;;;;;;4184323;28;20470;-89
2022/07/06 05:34:28;;;;;;;4.28;0.30;;;14.20;99.90;;;;;;4199095;28;20044;-89
2022/07/06 05:36:29;;;;;;;4.05;0.45;;;14.40;99.90;;;;;;4183832;28;20098;-90
2022/07/06 05:38:31;;;;;;;3.33;0.65;;;14.40;99.90;;;;;;4199763;28;20606;-89
2022/07/06 05:40:32;;;;;;;3.88;0.40;;;14.40;99.90;;;;;;4183356;28;20044;-89
2022/07/06 05:42:32;;;;;;;2.15;0.50;;;14.40;99.90;;;;;;4182983;28;20405;-89
2022/07/06 05:44:33;;;;;;;2.25;0.30;;;14.50;99.90;;;;;;4200260;28;20041;-89
2022/07/06 05:46:34;;;;;;;6.07;0.52;;;14.60;99.90;;;;;;4199207;28;20044;-90
2022/07/06 05:51:01;;;;;;;4.53;0.57;;;14.60;99.90;;;;;;4182955;28;20056;-89
2022/07/06 05:53:09;;;;;;;1.70;0.47;;;14.60;99.90;;;;;;4173217;28;20067;-90
2022/07/06 05:55:12;;;;;;;3.80;0.50;;;14.60;99.90;;;;;;4188719;28;20049;-91
2022/07/06 05:57:14;;;;;;;1.42;0.60;;;14.60;99.90;;;;;;4216472;28;20040;-89
2022/07/06 05:59:15;;;;;;;3.78;0.82;;;14.50;99.90;;;;;;4201972;28;20051;-90
2022/07/06 06:01:17;;;;;;;3.92;0.52;;;14.50;99.90;;;;;;4182779;28;20512;-89
2022/07/06 06:03:19;;;;;;;3.20;1.02;;;14.50;99.90;;;;;;4182136;28;20060;-90
2022/07/06 06:05:21;;;;;;;7.28;1.30;;;14.50;99.90;;;;;;4199105;28;20413;-90
2022/07/06 06:07:23;;;;;;;5.43;1.00;;;14.60;99.90;;;;;;4169146;28;20473;-90
2022/07/06 06:09:25;;;;;;;3.38;0.60;;;14.30;99.90;;;;;;4182527;28;20045;-91
2022/07/06 06:11:26;;;;;;;3.58;0.98;;;14.70;99.90;;;;;;4166558;28;20124;-90
2022/07/06 06:13:26;;;;;;;2.13;0.50;;;14.60;99.90;;;;;;4203555;28;20044;-89
2022/07/06 06:15:28;;;;;;;2.28;0.65;;;14.60;99.90;;;;;;4200777;28;20435;-90
2022/07/06 06:17:31;;;;;;;3.35;0.70;;;14.60;99.90;;;;;;4184352;28;20501;-89
2022/07/06 06:19:36;;;;;;;3.78;0.55;;;14.60;99.90;;;;;;4199355;28;20065;-88
2022/07/06 06:21:38;;;;;;;2.72;0.40;;;14.60;99.90;;;;;;4199767;28;20044;-88
2022/07/06 06:23:39;;;;;;;1.77;0.38;;;14.70;99.90;;;;;;4199318;28;20481;-87
2022/07/06 06:25:40;;;;;;;3.38;0.60;;;14.80;99.90;;;;;;4181525;28;20095;-88
2022/07/06 06:27:40;;;;;;;5.35;0.60;;;14.80;99.90;;;;;;4199434;28;20037;-89
2022/07/06 06:29:45;;;;;;;3.13;0.80;;;14.90;99.90;;;;;;4181809;28;20055;-88
2022/07/06 06:31:46;;;;;;;3.72;0.63;;;14.90;99.90;;;;;;4198796;28;20044;-89
2022/07/06 06:33:46;;;;;;;2.65;0.60;;;15.00;99.90;;;;;;4182572;28;20052;-89
2022/07/06 06:35:50;;;;;;;5.00;0.60;;;15.00;99.90;;;;;;4204254;28;20096;-89
2022/07/06 06:37:50;;;;;;;7.90;0.65;;;15.10;99.90;;;;;;4200514;28;20040;-88
2022/07/06 06:39:51;;;;;;;3.53;0.77;;;15.10;99.90;;;;;;4181815;28;20064;-87
2022/07/06 06:41:52;;;;;;;4.93;0.77;;;15.10;99.90;;;;;;4182679;28;20146;-87
2022/07/06 06:43:53;;;;;;;10.70;2.30;;;15.10;99.90;;;;;;4198550;28;20055;-87
2022/07/06 06:45:53;;;;;;;4.38;1.33;;;15.10;99.90;;;;;;4182463;28;20389;-86
2022/07/06 06:47:54;;;;;;;4.50;1.10;;;15.30;99.90;;;;;;4193741;28;20061;-87
2022/07/06 06:49:56;;;;;;;6.07;0.60;;;15.50;99.90;;;;;;4181150;28;20055;-85
2022/07/06 06:51:58;;;;;;;2.75;0.30;;;15.70;99.90;;;;;;4198163;28;20041;-86
2022/07/06 06:54:00;;;;;;;2.30;0.43;;;15.80;99.90;;;;;;4198016;28;20046;-86
2022/07/06 06:56:01;;;;;;;6.95;0.80;;;16.00;99.90;;;;;;4198131;28;20044;-87
2022/07/06 06:58:03;;;;;;;1.00;0.38;;;16.20;99.90;;;;;;4180921;28;20082;-87
2022/07/06 07:00:05;;;;;;;1.08;0.40;;;16.40;99.90;;;;;;4181353;28;20053;-87
2022/07/06 07:02:06;;;;;;;9.23;1.02;;;16.60;99.90;;;;;;4181510;28;20167;-86
2022/07/06 07:04:07;;;;;;;3.35;0.60;;;16.70;99.90;;;;;;4181203;28;20091;-86
2022/07/06 07:06:08;;;;;;;6.25;0.40;;;16.80;99.90;;;;;;4199027;28;20496;-86
2022/07/06 07:08:08;;;;;;;2.80;0.30;;;16.90;99.70;;;;;;4198162;28;20087;-86
2022/07/06 07:10:09;;;;;;;1.50;0.35;;;17.10;99.40;;;;;;4181101;28;20512;-86
2022/07/06 07:12:14;;;;;;;6.63;0.40;;;17.20;99.10;;;;;;4181507;28;20057;-86
2022/07/06 07:14:15;;;;;;;5.07;0.32;;;17.40;98.90;;;;;;4197318;28;20040;-86
2022/07/06 07:16:16;;;;;;;0.73;0.30;;;;;;;;;;4199574;28;20068;-88
2022/07/06 07:18:17;;;;;;;2.22;0.43;;;;;;;;;;4197080;28;20040;-86
2022/07/06 07:20:19;;;;;;;2.10;0.25;;;;;;;;;;4180522;28;20130;-89
2022/07/06 07:22:21;;;;;;;3.35;0.93;;;;;;;;;;4197227;28;20048;-87
2022/07/06 07:24:22;;;;;;;3.50;0.52;;;;;;;;;;4197107;28;20052;-87
2022/07/06 07:26:23;;;;;;;1.73;0.50;;;;;;;;;;4197298;28;20074;-88
2022/07/06 07:28:24;;;;;;;6.90;0.60;;;;;;;;;;4192022;28;20120;-88
2022/07/06 07:30:26;;;;;;;3.90;0.73;;;;;;;;;;4195472;28;20044;-89
2022/07/06 07:32:27;;;;;;;1.52;0.22;;;;;;;;;;4193499;28;20052;-89
2022/07/06 07:34:28;;;;;;;3.13;0.50;;;;;;;;;;4197335;28;20500;-89
2022/07/06 07:36:29;;;;;;;4.35;0.45;;;;;;;;;;4180824;28;20040;-89
2022/07/06 07:38:30;;;;;;;1.95;0.40;;;;;;;;;;4197124;28;20053;-89
2022/07/06 07:40:33;;;;;;;3.53;0.45;;;;;;;;;;4197351;28;20381;-89
2022/07/06 07:42:34;;;;;;;2.60;0.75;;;;;;;;;;4180579;28;20127;-88
2022/07/06 07:44:38;;;;;;;2.80;0.20;;;;;;;;;;4231268;28;20514;-88
2022/07/06 07:46:39;;;;;;;4.57;0.50;;;;;;;;;;4197770;28;20096;-89
2022/07/06 07:48:40;;;;;;;2.53;0.40;;;;;;;;;;4178547;28;20057;-89
2022/07/06 07:50:42;;;;;;;1.42;0.30;;;;;;;;;;4184846;28;20037;-89
2022/07/06 07:52:43;;;;;;;2.63;0.50;;;;;;;;;;4186097;28;20083;-89
2022/07/06 07:54:44;;;;;;;3.65;1.20;;;;;;;;;;4203156;28;20036;-88
2022/07/06 07:56:45;;;;;;;1.58;0.40;;;;;;;;;;4233332;28;20079;-88
2022/07/06 07:58:48;;;;;;;2.38;0.60;;;17.50;98.40;;;;;;4188650;28;20049;-89
2022/07/06 08:00:49;;;;;;;2.58;0.30;;;;;;;;;;4199712;28;20057;-90
2022/07/06 08:02:51;;;;;;;1.77;0.22;;;18.40;93.90;;;;;;4234721;28;20512;-89
2022/07/06 08:04:52;;;;;;;0.90;0.20;;;18.80;93.40;;;;;;4209404;28;20049;-87
2022/07/06 08:06:52;;;;;;;2.40;0.38;;;18.80;92.80;;;;;;4193353;28;20471;-88
2022/07/06 08:08:53;;;;;;;3.17;0.50;;;18.90;92.40;;;;;;4210284;28;20165;-88
2022/07/06 08:10:55;;;;;;;4.25;0.30;;;19.00;92.40;;;;;;4209259;28;20047;-88
2022/07/06 08:12:55;;;;;;;1.35;0.40;;;18.90;92.00;;;;;;4211336;28;20036;-88
2022/07/06 08:14:56;;;;;;;4.40;1.30;;;18.80;91.40;;;;;;4210308;28;20070;-89
2022/07/06 08:16:57;;;;;;;8.18;0.50;;;18.70;91.20;;;;;;4207490;28;20132;-89
2022/07/06 08:18:58;;;;;;;1.67;0.45;;;18.80;91.50;;;;;;4198344;28;20492;-89
2022/07/06 08:21:00;;;;;;;3.92;0.40;;;18.90;91.50;;;;;;4196495;28;20048;-89
2022/07/06 08:23:02;;;;;;;2.90;0.38;;;18.90;91.10;;;;;;4196166;28;20048;-90
2022/07/06 08:25:04;;;;;;;3.33;0.52;;;19.00;91.00;;;;;;4195888;28;20498;-89
2022/07/06 08:27:04;;;;;;;3.85;0.28;;;19.20;91.10;;;;;;4180626;28;20049;-88
2022/07/06 08:29:06;;;;;;;0.68;0.20;;;19.30;91.00;;;;;;4179637;28;20044;-89
2022/07/06 08:31:07;;;;;;;1.30;0.30;;;19.40;90.70;;;;;;4163354;28;20497;-90
2022/07/06 08:33:08;;;;;;;5.47;0.30;;;19.50;90.50;;;;;;4197554;28;20119;-88
2022/07/06 08:35:10;;;;;;;0.47;0.22;;;19.50;90.20;;;;;;4179770;28;20048;-88
2022/07/06 08:37:10;;;;;;;2.58;0.25;;;19.60;89.40;;;;;;4196282;28;20045;-89
2022/07/06 08:39:11;;;;;;;1.48;0.25;;;19.60;88.60;;;;;;4180032;28;20048;-89
2022/07/06 08:41:14;;;;;;;4.38;0.40;;;19.70;87.90;;;;;;4198285;28;20052;-89
2022/07/06 08:43:16;;;;;;;4.25;0.38;;;19.70;87.50;;;;;;4179878;28;20052;-89
2022/07/06 08:45:17;;;;;;;3.35;0.15;;;19.80;87.10;;;;;;4196179;28;20045;-88
2022/07/06 08:47:19;;;;;;;2.60;0.30;;;19.90;86.90;;;;;;4195420;28;20045;-89
2022/07/06 08:49:20;;;;;;;4.10;0.40;;;20.10;86.50;;;;;;4194920;28;20432;-89
2022/07/06 08:51:26;;;;;;;1.77;0.28;;;20.20;86.20;;;;;;4195657;28;20131;-88
2022/07/06 08:53:27;;;;;;;1.88;0.30;;;;;;;;;;4179532;28;20055;-89
2022/07/06 08:55:29;;;;;;;2.70;0.38;;;20.40;85.80;;;;;;4193986;28;20039;-89
2022/07/06 08:57:29;;;;;;;1.90;0.13;;;20.70;85.20;;;;;;4180793;28;20080;-89
2022/07/06 08:59:30;;;;;;;9.70;1.58;;;20.80;84.10;;;;;;4182223;28;20519;-89
2022/07/06 09:01:32;;;;;;;3.05;0.30;;;20.90;83.80;;;;;;4197008;28;20085;-89
2022/07/06 09:03:33;;;;;;;5.90;0.40;;;21.00;83.70;;;;;;4196180;28;20582;-89
2022/07/06 09:05:35;;;;;;;2.55;0.20;;;21.00;84.10;;;;;;4196661;28;20044;-89
2022/07/06 09:07:37;;;;;;;2.38;1.00;;;;;;;;;;4180201;28;20115;-89
2022/07/06 09:09:40;;;;;;;3.13;0.60;;;;;;;;;;4197543;28;20055;-89
2022/07/06 09:11:41;;;;;;;2.13;0.40;;;;;;;;;;4197385;28;20099;-88
2022/07/06 09:13:42;;;;;;;6.43;0.43;;;21.20;83.60;;;;;;4180385;28;20090;-88
2022/07/06 09:15:43;;;;;;;1.65;0.30;;;21.10;82.60;;;;;;4185478;28;20045;-87
2022/07/06 09:17:44;;;;;;;2.22;0.35;;;21.00;82.00;;;;;;4201170;28;20032;-90
2022/07/06 09:19:46;;;;;;;1.80;0.20;;;20.90;82.30;;;;;;4201032;28;20094;-87
2022/07/06 09:21:48;;;;;;;2.95;0.47;;;20.80;82.70;;;;;;4183100;28;20048;-89
2022/07/06 09:23:54;;;;;;;3.30;0.40;;;20.60;82.80;;;;;;4183221;28;20088;-91
2022/07/06 09:25:56;;;;;;;3.33;0.40;;;20.40;83.30;;;;;;4198842;28;20087;-89
2022/07/06 09:27:58;;;;;;;4.30;0.40;;;20.20;83.70;;;;;;4182796;28;20095;-90
2022/07/06 09:30:03;;;;;;;5.13;0.60;;;20.10;83.90;;;;;;4199873;28;20044;-89
2022/07/06 09:32:05;;;;;;;4.10;0.50;;;20.00;84.70;;;;;;4199343;28;20056;-90
2022/07/06 09:34:12;;;;;;;2.28;0.28;;;20.00;85.50;;;;;;4166835;28;20045;-90
2022/07/06 09:36:13;;;;;;;4.35;0.32;;;20.20;85.20;;;;;;4201411;28;20063;-90
2022/07/06 09:38:15;;;;;;;2.17;0.40;;;20.60;85.30;;;;;;4170291;28;20057;-90
2022/07/06 09:40:17;;;;;;;1.08;0.28;;;20.80;84.60;;;;;;4185802;28;20492;-90
2022/07/06 09:42:25;;;;;;;5.57;0.65;;;21.00;84.10;;;;;;4192959;28;20049;-90
2022/07/06 09:44:32;;;;;;;0.90;0.40;;;21.10;81.90;;;;;;4179284;28;20041;-90
2022/07/06 09:46:45;;;;;;;1.67;0.30;;;21.00;82.80;;;;;;4178960;28;20113;-90
2022/07/06 09:48:46;;;;;;;2.55;0.20;;;20.80;81.60;;;;;;4230239;28;20044;-91
2022/07/06 09:50:54;;;;;;;2.20;0.30;;;20.80;81.60;;;;;;4196610;28;20041;-89
2022/07/06 09:52:56;;;;;;;3.08;0.35;;;20.70;79.60;;;;;;4179538;28;20050;-90
2022/07/06 09:54:56;;;;;;;3.92;0.38;;;20.70;80.60;;;;;;4198368;28;20044;-90
2022/07/06 09:56:57;;;;;;;2.17;0.30;;;20.70;80.70;;;;;;4198287;28;20398;-90
2022/07/06 09:58:58;;;;;;;2.10;0.38;;;20.80;81.10;;;;;;4183858;28;20128;-90
2022/07/06 10:00:59;;;;;;;2.17;0.50;;;20.70;80.80;;;;;;4189862;28;20068;-90
2022/07/06 10:03:02;;;;;;;1.30;0.38;;;20.70;80.40;;;;;;4182027;28;20045;-90
2022/07/06 10:05:04;;;;;;;3.10;0.43;;;20.60;80.80;;;;;;4201631;28;20045;-89
2022/07/06 10:07:07;;;;;;;2.25;0.45;;;20.80;81.30;;;;;;4201859;28;20040;-89
2022/07/06 10:09:10;;;;;;;3.55;0.40;;;20.70;80.60;;;;;;4202808;28;20048;-89
2022/07/06 10:11:14;;;;;;;2.15;0.25;;;20.70;81.10;;;;;;4202391;28;20049;-90
2022/07/06 10:13:21;;;;;;;1.00;0.60;;;20.80;80.90;;;;;;4203017;28;20053;-89
2022/07/06 10:15:31;;;;;;;3.88;0.40;;;20.80;80.30;;;;;;4186160;28;20056;-89
2022/07/06 10:17:33;;;;;;;1.65;0.28;;;21.00;80.30;;;;;;4219523;28;20056;-90
2022/07/06 10:19:33;;;;;;;3.65;0.40;;;21.00;80.20;;;;;;4219440;28;20109;-89
2022/07/06 10:21:39;;;;;;;0.70;0.68;;;21.10;79.60;;;;;;4202483;28;20032;-90
2022/07/06 10:23:41;;;;;;;1.63;0.50;;;21.10;79.10;;;;;;4219060;28;20028;-90
2022/07/06 10:25:44;;;;;;;4.75;0.52;;;21.10;79.50;;;;;;4202332;28;20040;-90
2022/07/06 10:27:46;;;;;;;3.38;0.50;;;21.20;79.60;;;;;;4185820;28;20054;-89
2022/07/06 10:29:47;;;;;;;2.53;0.60;;;21.40;79.70;;;;;;4218630;28;20043;-90
2022/07/06 10:31:48;;;;;;;1.45;0.20;;;21.60;78.50;;;;;;4195859;28;20071;-89
2022/07/06 10:33:50;;;;;;;1.95;0.32;;;21.60;78.30;;;;;;4167042;28;20053;-90
2022/07/06 10:35:51;;;;;;;1.65;0.40;;;21.80;79.00;;;;;;4188739;28;20037;-89
2022/07/06 10:38:08;;;;;;;4.90;0.35;;;22.00;78.20;;;;;;4190470;28;20045;-89
2022/07/06 10:42:49;;;;;;;3.60;0.40;;;22.10;75.60;;;;;;4193575;28;20049;-89
2022/07/06 10:44:53;;;;;;;6.85;0.47;;;22.10;70.70;;;;;;4166717;28;20037;-90
2022/07/06 10:47:00;;;;;;;1.98;0.52;;;22.20;74.50;;;;;;4182883;28;20057;-90
2022/07/06 10:49:15;;;;;;;1.85;0.50;;;22.40;73.20;;;;;;4181769;28;20548;-89
2022/07/06 10:51:25;;;;;;;2.72;0.57;;;22.40;68.20;;;;;;4185157;28;20036;-89
2022/07/06 10:53:28;;;;;;;1.02;0.50;;;;;;;;;;4191700;28;20056;-89
2022/07/06 10:55:36;;;;;;;3.10;0.40;;;;;;;;;;4171313;28;20478;-89
2022/07/06 10:57:52;;;;;;;4.72;0.32;;;;;;;;;;4182799;28;20516;-90
2022/07/06 11:00:04;;;;;;;5.00;0.50;;;;;;;;;;4166483;28;20073;-89